Latest Coastal Weather Observations for St Lawrence

IDQ60701

Issued at 9:12 am EST Monday 2 May 2016 (issued every 10 minutes, with the page automatically refreshed every 10 minutes)

About coastal observations | Map of coastal stations | Coastal observations for QLD | Marine services | Other Formats
Station Details ID: 033210 Name: ST LAWRENCE Lat: -22.35 Lon: 149.52 Height: 9.19 m
Data from the previous 72 hours. | See also: Recent months at St Lawrence
Date/Time
EST
Temp

°C
Wind Pressure Rain
since 9am
mm
Weather Cloud Vis
km
Sea
Height
m
Swell
Dir
 
Speed
knots
Gust
knots
hPa Trend Height
m
Period
s
Dir
02/09:00am 24.7 S 5 7 1016.9 - 0.0 - - - - - - -
02/08:30am 24.6 S 5 7 1016.6 - 0.0 - - - - - - -
02/08:00am 23.6 S 3 5 1016.4 - 0.0 - - - - - - -
02/07:30am 22.7 S 3 5 1016.1 - 0.0 - - - - - - -
02/07:00am 22.4 CALM 0 0 1015.9 - 0.0 - - - - - - -
02/06:30am 21.8 CALM 0 0 1015.4 - 0.0 - - - - - - -
02/06:00am 21.9 WSW 1 3 1015.2 - 0.0 - - - - - - -
02/05:30am 21.8 SSW 2 4 1014.9 - 0.0 - - - - - - -
02/05:00am 21.7 CALM 0 0 1014.5 - 0.0 - - - - - - -
02/04:30am 21.7 CALM 0 0 1014.5 - 0.0 - - - - - - -
02/04:00am 21.9 CALM 0 0 1014.3 - 0.0 - - - - - - -
02/03:30am 22.5 SSW 3 4 1014.2 - 0.0 - - - - - - -
02/03:00am 22.4 CALM 0 0 1014.2 - 0.0 - - - - - - -
02/02:30am 22.4 CALM 0 0 1014.3 - 0.0 - - - - - - -
02/02:00am 22.8 CALM 0 0 1014.5 - 0.0 - - - - - - -
02/01:30am 23.0 CALM 0 2 1014.8 - 0.0 - - - - - - -
02/01:00am 23.1 CALM 0 0 1015.2 - 0.0 - - - - - - -
02/12:30am 23.2 CALM 0 3 1015.6 - 0.0 - - - - - - -
02/12:00am 23.4 SSW 2 4 1015.9 - 0.0 - - - - - - -
 
Date/Time
EST
Temp

°C
Wind Pressure Rain
since 9am
mm
Weather Cloud Vis
km
Sea
Height
m
Swell
Dir
 
Speed
knots
Gust
knots
hPa Trend Height
m
Period
s
Dir
01/11:30pm 23.7 CALM 0 0 1016.2 - 0.0 - - - - - - -
01/11:00pm 24.2 CALM 0 0 1016.4 - 0.0 - - - - - - -
01/10:30pm 23.9 WSW 1 4 1016.6 - 0.0 - - - - - - -
01/10:00pm 24.3 CALM 0 0 1016.7 - 0.0 - - - - - - -
01/09:30pm 24.6 WSW 1 3 1016.8 - 0.0 - - - - - - -
01/09:00pm 25.2 ENE 3 6 1016.8 - 0.0 - - - - - - -
01/08:30pm 25.3 NNE 6 8 1016.8 - 0.0 - - - - - - -
01/08:00pm 25.1 NNE 5 7 1016.5 - 0.0 - - - - - - -
01/07:30pm 25.4 NNE 7 8 1016.4 - 0.0 - - - - - - -
01/07:00pm 25.5 NNE 7 10 1016.0 - 0.0 - - - - - - -
01/06:30pm 25.7 NNE 7 9 1015.5 - 0.0 - - - - - - -
01/06:00pm 26.0 NNE 7 10 1015.0 - 0.0 - - - - - - -
01/05:30pm 26.4 NE 7 11 1014.8 - 0.0 - - - - - - -
01/05:00pm 26.8 NNE 8 11 1014.8 - 0.0 - - - - - - -
01/04:30pm 27.4 NE 8 11 1014.5 - 0.0 - - - - - - -
01/04:00pm 28.0 NNE 9 12 1014.3 - 0.0 - - - - - - -
01/03:30pm 28.7 NE 10 12 1013.9 - 0.0 - - - - - - -
01/03:00pm 28.9 NE 8 11 1013.9 - 0.0 - - - - - - -
01/02:30pm 29.1 NNE 9 13 1013.8 - 0.0 - - - - - - -
01/02:00pm 29.7 NE 8 12 1014.0 - 0.0 - - - - - - -
01/01:30pm 30.1 NE 8 11 1014.3 - 0.0 - - - - - - -
01/01:00pm 30.1 NE 7 12 1014.8 - 0.0 - - - - - - -
01/12:30pm 29.2 NE 7 11 1015.2 - 0.0 - - - - - - -
01/12:00pm 29.9 NE 6 10 1015.7 - 0.0 - - - - - - -
01/11:30am 29.1 NNE 5 9 1016.3 - 0.0 - - - - - - -
01/11:00am 28.4 SE 4 9 1016.9 - 0.0 - - - - - - -
01/10:30am 27.1 SE 2 5 1017.4 - 0.0 - - - - - - -
01/10:00am 27.6 ENE 2 4 1017.9 - 0.0 - - - - - - -
01/09:30am 26.0 NE 3 5 1017.9 - 0.0 - - - - - - -
01/09:00am 25.8 SSE 3 5 1017.9 - 0.0 - - - - - - -
01/08:30am 24.8 S 1 3 1018.1 - 0.0 - - - - - - -
01/08:00am 23.9 SSW 1 4 1017.8 - 0.0 - - - - - - -
01/07:30am 22.7 SE 3 5 1017.7 - 0.0 - - - - - - -
01/07:00am 22.0 SSE 5 6 1017.5 - 0.0 - - - - - - -
01/06:30am 21.7 SSE 3 5 1017.3 - 0.0 - - - - - - -
01/06:00am 21.0 SSE 1 4 1017.1 - 0.0 - - - - - - -
01/05:30am 21.0 SSW 1 3 1016.9 - 0.0 - - - - - - -
01/05:00am 21.0 SSW 1 4 1016.7 - 0.0 - - - - - - -
01/04:30am 20.5 CALM 0 0 1016.5 - 0.0 - - - - - - -
01/04:00am 20.2 CALM 0 0 1016.3 - 0.0 - - - - - - -
01/03:30am 21.2 CALM 0 0 1016.4 - 0.0 - - - - - - -
01/03:00am 20.6 CALM 0 0 1016.4 - 0.0 - - - - - - -
01/02:30am 21.2 CALM 0 0 1016.6 - 0.0 - - - - - - -
01/02:00am 21.9 CALM 0 0 1016.9 - 0.0 - - - - - - -
01/01:30am 22.2 CALM 0 0 1017.0 - 0.0 - - - - - - -
01/01:00am 22.2 CALM 0 0 1017.2 - 0.0 - - - - - - -
01/12:30am 21.8 CALM 0 0 1017.3 - 0.0 - - - - - - -
01/12:00am 21.8 CALM 0 0 1017.3 - 0.0 - - - - - - -
 
Date/Time
EST
Temp

°C
Wind Pressure Rain
since 9am
mm
Weather Cloud Vis
km
Sea
Height
m
Swell
Dir
 
Speed
knots
Gust
knots
hPa Trend Height
m
Period
s
Dir
30/11:30pm 22.3 CALM 0 0 1017.4 - 0.0 - - - - - - -
30/11:00pm 22.5 CALM 0 0 1017.6 - 0.0 - - - - - - -
30/10:30pm 23.2 CALM 0 0 1017.7 - 0.0 - - - - - - -
30/10:00pm 24.2 CALM 0 0 1017.8 - 0.0 - - - - - - -
30/09:30pm 24.7 CALM 0 0 1017.7 - 0.0 - - - - - - -
30/09:00pm 25.3 NE 3 5 1017.7 - 0.0 - - - - - - -
30/08:30pm 25.6 NE 4 7 1017.6 - 0.0 - - - - - - -
30/08:00pm 25.7 NE 6 8 1017.3 - 0.0 - - - - - - -
30/07:30pm 25.9 NNE 6 8 1017.0 - 0.0 - - - - - - -
30/07:00pm 26.0 N 6 9 1016.6 - 0.0 - - - - - - -
30/06:30pm 25.8 N 7 11 1016.0 - 0.0 - - - - - - -
30/06:00pm 26.0 N 7 10 1015.8 - 0.0 - - - - - - -
30/05:30pm 26.4 N 7 10 1015.9 - 0.0 - - - - - - -
30/05:00pm 26.8 NNE 9 12 1015.6 - 0.0 - - - - - - -
30/04:30pm 27.9 NNE 10 13 1015.3 - 0.0 - - - - - - -
30/04:00pm 28.2 NNE 10 14 1015.1 - 0.0 - - - - - - -
30/03:30pm 29.2 NNE 8 12 1015.0 - 0.0 - - - - - - -
30/03:00pm 29.9 NNE 8 12 1014.8 - 0.0 - - - - - - -
30/02:30pm 29.5 NNE 9 14 1014.8 - 0.0 - - - - - - -
30/02:00pm 29.9 NNE 10 13 1015.1 - 0.0 - - - - - - -
30/01:30pm 30.4 NNE 8 12 1015.2 - 0.0 - - - - - - -
30/01:00pm 29.8 NNE 9 13 1015.6 - 0.0 - - - - - - -
30/12:30pm 30.3 NE 7 11 1016.2 - 0.0 - - - - - - -
30/12:00pm 28.8 E 6 10 1016.9 - 0.0 - - - - - - -
30/11:30am 29.5 E 5 9 1017.3 - 0.0 - - - - - - -
30/11:00am 28.1 SE 6 9 1017.9 - 0.0 - - - - - - -
30/10:30am 27.5 SE 6 9 1018.4 - 0.0 - - - - - - -
30/10:00am 27.6 E 4 7 1018.9 - 0.0 - - - - - - -
30/09:30am 26.2 SE 6 10 1019.1 - 0.0 - - - - - - -
30/09:00am 25.4 SSE 6 10 1019.1 - 0.2 - - - - - - -
30/08:30am 24.6 SSE 7 9 1019.0 - 0.2 - - - - - - -
30/08:00am 23.8 S 5 9 1019.2 - 0.2 - - - - - - -
30/07:30am 22.6 S 5 8 1019.0 - 0.2 - - - - - - -
30/07:00am 21.7 S 4 6 1018.5 - 0.2 - - - - - - -
30/06:30am 21.5 S 4 6 1018.2 - 0.2 - - - - - - -
30/06:00am 21.7 S 4 6 1017.9 - 0.2 - - - - - - -
30/05:30am 22.1 S 4 7 1017.7 - 0.2 - - - - - - -
30/05:00am 22.2 S 4 5 1017.4 - 0.2 - - - - - - -
30/04:30am 22.3 S 4 5 1017.2 - 0.2 - - - - - - -
30/04:00am 22.1 S 2 5 1017.1 - 0.2 - - - - - - -
30/03:30am 22.3 CALM 0 0 1017.2 - 0.2 - - - - - - -
30/03:00am 22.6 CALM 0 0 1017.5 - 0.2 - - - - - - -
30/02:30am 22.5 SSE 3 4 1017.7 - 0.2 - - - - - - -
30/02:00am 22.7 CALM 0 0 1017.9 - 0.2 - - - - - - -
30/01:30am 22.8 S 1 3 1018.2 - 0.0 - - - - - - -
30/01:00am 22.5 CALM 0 0 1018.4 - 0.0 - - - - - - -
30/12:30am 21.9 CALM 0 0 1018.8 - 0.0 - - - - - - -
30/12:00am 21.9 CALM 0 0 1019.1 - 0.0 - - - - - - -
 
Date/Time
EST
Temp

°C
Wind Pressure Rain
since 9am
mm
Weather Cloud Vis
km
Sea
Height
m
Swell
Dir
 
Speed
knots
Gust
knots
hPa Trend Height
m
Period
s
Dir
29/11:30pm 22.6 CALM 0 0 1019.2 - 0.0 - - - - - - -
29/11:00pm 22.6 SW 2 3 1019.3 - 0.0 - - - - - - -
29/10:30pm 22.9 CALM 0 0 1019.2 - 0.0 - - - - - - -
29/10:00pm 23.6 SSE 3 5 1019.2 - 0.0 - - - - - - -
29/09:30pm 24.1 SE 4 7 1019.2 - 0.0 - - - - - - -
29/09:00pm 24.6 ESE 5 8 1019.2 - 0.0 - - - - - - -
29/08:30pm 25.2 ESE 5 7 1018.9 - 0.0 - - - - - - -
29/08:00pm 25.4 ESE 5 9 1018.5 - 0.0 - - - - - - -
29/07:30pm 25.6 ESE 5 8 1018.1 - 0.0 - - - - - - -
29/07:00pm 26.0 ENE 4 8 1017.6 - 0.0 - - - - - - -
29/06:30pm 25.7 N 4 6 1017.2 - 0.0 - - - - - - -
29/06:00pm 25.7 N 5 6 1016.9 - 0.0 - - - - - - -
29/05:30pm 26.3 NNE 8 10 1016.5 - 0.0 - - - - - - -
29/05:00pm 27.2 NNE 7 10 1016.2 - 0.0 - - - - - - -
29/04:30pm 28.1 NE 7 10 1015.7 - 0.0 - - - - - - -
29/04:00pm 28.3 NE 8 12 1015.5 - 0.0 - - - - - - -
29/03:30pm 28.9 NE 10 15 1015.3 - 0.0 - - - - - - -
29/03:00pm 29.3 NE 10 14 1015.4 - 0.0 - - - - - - -
29/02:30pm 28.9 ENE 7 12 1015.5 - 0.0 - - - - - - -
29/02:00pm 29.6 ENE 8 13 1015.6 - 0.0 - - - - - - -
29/01:30pm 28.6 ESE 7 11 1016.0 - 0.0 - - - - - - -
29/01:00pm 28.6 ESE 4 8 1016.3 - 0.0 - - - - - - -
29/12:30pm 28.9 E 5 10 1016.8 - 0.0 - - - - - - -
29/12:00pm 27.9 E 6 9 1017.4 - 0.0 - - - - - - -
29/11:30am 27.9 ESE 5 9 1018.0 - 0.0 - - - - - - -
29/11:00am 26.3 S 6 9 1018.7 - 0.0 - - - - - - -
29/10:30am 25.9 E 5 9 1019.2 - 0.0 - - - - - - -
29/10:00am 26.0 ESE 7 10 1019.7 - 0.0 - - - - - - -
29/09:30am 24.9 SE 7 11 1019.9 - 0.0 - - - - - - -

Other Formats:

Comma delimited format used in spreadsheet applications
http://www.bom.gov.au/fwo/IDQ60701/IDQ60701.95369.axf

JavaScript Object Notation format (JSON) in row-major order
http://www.bom.gov.au/fwo/IDQ60701/IDQ60701.95369.json